createdAt,value
2018-06-24T00:00:10.958Z,99.90
2018-06-24T00:02:39.922Z,99.90
2018-06-24T00:05:08.962Z,99.90
2018-06-24T00:07:39.166Z,99.90
2018-06-24T00:10:08.215Z,99.90
2018-06-24T00:12:37.188Z,99.90
2018-06-24T00:15:06.258Z,99.90
2018-06-24T00:17:35.239Z,99.90
2018-06-24T00:20:04.257Z,99.90
2018-06-24T00:22:33.270Z,99.90
2018-06-24T00:25:02.294Z,99.90
2018-06-24T00:27:31.358Z,99.90
2018-06-24T00:30:00.394Z,99.90
2018-06-24T00:32:29.370Z,99.90
2018-06-24T00:34:58.360Z,99.90
2018-06-24T00:37:27.456Z,99.90
2018-06-24T00:39:56.527Z,99.90
2018-06-24T00:44:54.317Z,99.90
2018-06-24T00:47:23.383Z,99.90
2018-06-24T00:49:52.423Z,99.90
2018-06-24T00:52:21.422Z,99.90
2018-06-24T00:54:50.526Z,99.90
2018-06-24T00:57:19.558Z,99.90
2018-06-24T01:00:00.094Z,99.90
2018-06-24T01:02:29.087Z,99.90
2018-06-24T01:04:58.055Z,99.90
2018-06-24T01:07:27.066Z,99.90
2018-06-24T01:09:56.011Z,99.90
2018-06-24T01:12:24.987Z,99.90
2018-06-24T01:14:54.030Z,99.90
2018-06-24T01:17:23.103Z,99.90
2018-06-24T01:19:54.262Z,99.90
2018-06-24T01:22:23.386Z,99.90
2018-06-24T01:24:53.122Z,99.90
2018-06-24T01:27:22.193Z,99.90
2018-06-24T01:29:51.226Z,99.90
2018-06-24T01:32:20.526Z,99.90
2018-06-24T01:37:18.200Z,99.90
2018-06-24T01:39:47.206Z,99.90
2018-06-24T01:42:16.454Z,99.90
2018-06-24T01:44:45.493Z,99.90
2018-06-24T01:47:14.523Z,99.90
2018-06-24T01:49:43.536Z,99.90
2018-06-24T01:52:12.506Z,99.90
2018-06-24T01:54:41.490Z,99.90
2018-06-24T01:57:10.567Z,99.90
2018-06-24T02:04:36.756Z,99.90
2018-06-24T02:07:05.898Z,99.90
2018-06-24T02:09:34.934Z,99.90
2018-06-24T02:12:03.930Z,99.90
2018-06-24T02:14:32.922Z,99.90
2018-06-24T02:17:01.991Z,99.90
2018-06-24T02:19:31.031Z,99.90
2018-06-24T02:22:00.040Z,99.90
2018-06-24T02:24:29.326Z,99.90
2018-06-24T02:26:58.295Z,99.90
2018-06-24T02:29:27.307Z,99.90
2018-06-24T02:31:56.376Z,99.90
2018-06-24T02:36:54.091Z,99.90
2018-06-24T02:39:23.238Z,99.90
2018-06-24T02:41:52.227Z,99.90
2018-06-24T02:44:21.283Z,99.90
2018-06-24T02:46:50.317Z,99.90
2018-06-24T02:49:19.355Z,99.90
2018-06-24T02:51:48.619Z,99.90
2018-06-24T02:56:46.219Z,99.90
2018-06-24T02:59:15.308Z,99.90
2018-06-24T03:01:44.314Z,99.90
2018-06-24T03:04:13.332Z,99.90
2018-06-24T03:06:42.374Z,99.90
2018-06-24T03:11:40.775Z,99.90
2018-06-24T03:19:07.202Z,99.90
2018-06-24T03:21:36.248Z,99.90
2018-06-24T03:24:05.272Z,99.90
2018-06-24T03:26:34.363Z,99.90
2018-06-24T03:29:03.402Z,99.90
2018-06-24T03:31:32.431Z,99.90
2018-06-24T03:34:01.411Z,99.90
2018-06-24T03:38:59.172Z,99.90
2018-06-24T03:41:28.267Z,99.90
2018-06-24T03:43:57.367Z,99.90
2018-06-24T03:46:26.435Z,99.90
2018-06-24T03:48:55.514Z,99.90
2018-06-24T03:51:24.547Z,99.90
2018-06-24T03:53:53.642Z,99.90
2018-06-24T03:56:22.707Z,99.90
2018-06-24T03:58:51.751Z,99.90
2018-06-24T04:03:49.418Z,99.90
2018-06-24T04:06:18.719Z,99.90
2018-06-24T04:08:47.678Z,99.90
2018-06-24T04:11:16.698Z,99.90
2018-06-24T04:13:45.738Z,99.90
2018-06-24T04:16:14.792Z,99.90
2018-06-24T04:18:44.974Z,99.90
2018-06-24T04:21:15.001Z,99.90
2018-06-24T04:23:44.896Z,99.90
2018-06-24T04:26:13.919Z,99.90
2018-06-24T04:28:43.021Z,99.90
2018-06-24T04:31:12.130Z,99.90
2018-06-24T04:33:41.258Z,99.90
2018-06-24T04:36:10.262Z,99.90
2018-06-24T04:38:39.258Z,99.90
2018-06-24T04:41:08.297Z,99.90
2018-06-24T04:43:37.346Z,99.90
2018-06-24T04:46:06.377Z,99.90
2018-06-24T04:48:35.546Z,99.90
2018-06-24T04:51:04.546Z,99.90
2018-06-24T04:53:33.529Z,99.90
2018-06-24T04:56:02.499Z,99.90
2018-06-24T04:58:31.563Z,99.90
2018-06-24T05:01:00.752Z,99.90
2018-06-24T05:03:29.790Z,99.90
2018-06-24T05:05:58.866Z,99.90
2018-06-24T05:08:27.944Z,99.90
2018-06-24T05:10:56.995Z,99.90
2018-06-24T05:15:54.803Z,99.90
2018-06-24T05:18:23.905Z,99.90
2018-06-24T05:20:52.919Z,99.90
2018-06-24T05:23:22.002Z,99.90
2018-06-24T05:25:50.978Z,99.90
2018-06-24T05:28:20.109Z,99.90
2018-06-24T05:30:49.068Z,99.90
2018-06-24T05:33:18.246Z,99.90
2018-06-24T05:35:47.311Z,99.90
2018-06-24T05:38:16.414Z,99.90
2018-06-24T05:40:45.492Z,99.90
2018-06-24T05:43:14.546Z,99.90
2018-06-24T05:45:43.583Z,99.90
2018-06-24T05:48:12.760Z,99.90
2018-06-24T05:50:42.021Z,99.90
2018-06-24T05:55:39.919Z,99.90
2018-06-24T05:58:09.194Z,99.90
2018-06-24T06:00:38.216Z,99.90
2018-06-24T06:03:07.251Z,99.90
2018-06-24T06:05:36.256Z,99.90
2018-06-24T06:08:05.760Z,99.90
2018-06-24T06:10:34.722Z,99.90
2018-06-24T06:13:04.201Z,99.90
2018-06-24T06:15:33.191Z,99.90
2018-06-24T06:18:02.359Z,99.90
2018-06-24T06:23:00.198Z,99.90
2018-06-24T06:25:29.284Z,99.90
2018-06-24T06:27:58.267Z,99.90
2018-06-24T06:30:27.283Z,99.90
2018-06-24T06:32:56.610Z,99.90
2018-06-24T06:35:25.596Z,99.90
2018-06-24T06:37:54.741Z,99.90
2018-06-24T06:40:23.887Z,99.90
2018-06-24T06:42:52.880Z,99.90
2018-06-24T06:45:22.025Z,99.90
2018-06-24T06:47:50.968Z,99.90
2018-06-24T06:52:48.651Z,99.90
2018-06-24T06:55:17.691Z,99.90
2018-06-24T06:57:46.749Z,99.90
2018-06-24T07:00:15.763Z,99.90
2018-06-24T07:02:44.691Z,99.90
2018-06-24T07:05:13.822Z,99.90
2018-06-24T07:07:42.822Z,99.90
2018-06-24T07:10:11.840Z,99.90
2018-06-24T07:12:40.987Z,99.90
2018-06-24T07:15:10.011Z,99.90
2018-06-24T07:17:39.024Z,99.90
2018-06-24T07:20:08.180Z,99.90
2018-06-24T07:22:37.177Z,99.90
2018-06-24T07:25:06.567Z,99.90
2018-06-24T07:27:35.530Z,99.90
2018-06-24T07:30:05.007Z,99.90
2018-06-24T07:32:34.029Z,99.90
2018-06-24T07:35:03.042Z,99.90
2018-06-24T07:37:32.026Z,99.90
2018-06-24T07:40:00.998Z,99.90
2018-06-24T07:42:30.010Z,99.90
2018-06-24T07:44:59.011Z,99.90
2018-06-24T07:47:27.980Z,99.90
2018-06-24T07:49:56.971Z,99.90
2018-06-24T07:52:25.986Z,99.90
2018-06-24T07:54:55.115Z,99.90
2018-06-24T07:57:24.231Z,99.90
2018-06-24T07:59:53.273Z,99.90
2018-06-24T08:02:22.598Z,99.90
2018-06-24T08:04:51.666Z,99.90
2018-06-24T08:07:21.491Z,99.90
2018-06-24T08:09:50.525Z,99.90
2018-06-24T08:12:19.535Z,99.90
2018-06-24T08:14:48.572Z,99.90
2018-06-24T08:17:17.587Z,99.90
2018-06-24T08:19:46.688Z,99.90
2018-06-24T08:22:15.714Z,99.90
2018-06-24T08:24:44.659Z,99.90
2018-06-24T08:27:13.667Z,99.90
2018-06-24T08:29:44.041Z,99.90
2018-06-24T08:32:13.078Z,99.90
2018-06-24T08:34:42.119Z,99.90
2018-06-24T08:37:11.133Z,99.90
2018-06-24T08:39:40.103Z,99.90
2018-06-24T08:42:09.111Z,99.90
2018-06-24T08:44:38.151Z,99.90
2018-06-24T08:47:07.161Z,99.90
2018-06-24T08:49:36.129Z,99.90
2018-06-24T08:52:05.361Z,99.90
2018-06-24T08:54:34.346Z,99.80
2018-06-24T08:57:03.388Z,99.90
2018-06-24T08:59:32.361Z,99.90
2018-06-24T09:02:01.316Z,99.90
2018-06-24T09:04:30.298Z,99.90
2018-06-24T09:06:59.334Z,99.90
2018-06-24T09:09:28.338Z,99.90
2018-06-24T09:11:57.355Z,99.90
2018-06-24T09:14:26.395Z,99.90
2018-06-24T09:16:55.355Z,99.90
2018-06-24T09:19:24.351Z,99.90
2018-06-24T09:21:53.307Z,99.90
2018-06-24T09:24:22.386Z,99.90
2018-06-24T09:26:51.873Z,99.90
2018-06-24T09:29:20.886Z,99.90
2018-06-24T09:31:49.886Z,99.90
2018-06-24T09:34:18.856Z,99.90
2018-06-24T09:36:47.822Z,99.90
2018-06-24T09:39:17.039Z,99.90
2018-06-24T09:41:45.986Z,99.90
2018-06-24T09:44:15.046Z,99.90
2018-06-24T09:46:43.999Z,99.90
2018-06-24T09:49:12.960Z,99.90
2018-06-24T09:51:41.920Z,99.90
2018-06-24T09:54:10.914Z,99.90
2018-06-24T09:56:39.865Z,99.90
2018-06-24T09:59:08.896Z,99.90
2018-06-24T10:01:37.898Z,99.90
2018-06-24T10:04:06.862Z,99.90
2018-06-24T10:06:35.830Z,99.90
2018-06-24T10:09:07.806Z,99.90
2018-06-24T10:11:36.767Z,99.90
2018-06-24T10:14:05.750Z,99.90
2018-06-24T10:16:34.733Z,99.90
2018-06-24T10:19:03.731Z,99.90
2018-06-24T10:21:32.825Z,99.90
2018-06-24T10:24:01.783Z,99.90
2018-06-24T10:26:30.764Z,99.90
2018-06-24T10:28:59.757Z,99.90
2018-06-24T10:31:28.722Z,99.90
2018-06-24T10:33:57.682Z,99.90
2018-06-24T10:36:26.761Z,99.90
2018-06-24T10:38:55.826Z,99.90
2018-06-24T10:41:24.882Z,99.90
2018-06-24T10:43:54.094Z,99.90
2018-06-24T10:46:23.139Z,99.90
2018-06-24T10:48:52.155Z,99.90
2018-06-24T10:51:21.407Z,99.90
2018-06-24T10:53:50.363Z,99.90
2018-06-24T10:56:19.377Z,99.90
2018-06-24T10:58:48.331Z,99.90
2018-06-24T11:01:17.417Z,99.90
2018-06-24T11:03:52.705Z,99.90
2018-06-24T11:06:22.916Z,99.90
2018-06-24T11:08:51.897Z,99.90
2018-06-24T11:11:20.991Z,99.90
2018-06-24T11:13:50.106Z,99.90
2018-06-24T11:16:19.155Z,99.90
2018-06-24T11:18:48.178Z,99.90
2018-06-24T11:21:17.249Z,99.90
2018-06-24T11:23:46.224Z,99.90
2018-06-24T11:26:15.534Z,99.90
2018-06-24T11:28:44.486Z,99.90
2018-06-24T11:31:13.459Z,99.90
2018-06-24T11:33:42.482Z,99.90
2018-06-24T11:36:11.447Z,99.90
2018-06-24T11:38:40.599Z,99.90
2018-06-24T11:41:09.722Z,99.90
2018-06-24T11:43:38.688Z,99.90
2018-06-24T11:46:07.675Z,99.90
2018-06-24T11:48:36.699Z,99.90
2018-06-24T11:51:05.735Z,99.90
2018-06-24T11:53:34.691Z,99.90
2018-06-24T11:56:03.670Z,99.90
2018-06-24T11:58:32.679Z,99.90
2018-06-24T12:01:01.841Z,99.90
2018-06-24T12:03:30.907Z,99.90
2018-06-24T12:05:59.871Z,99.90
2018-06-24T12:08:28.855Z,99.90
2018-06-24T12:10:57.930Z,99.90
2018-06-24T12:13:26.907Z,99.90
2018-06-24T12:15:55.901Z,99.90
2018-06-24T12:18:25.033Z,99.90
2018-06-24T12:20:54.033Z,99.90
2018-06-24T12:23:22.997Z,99.90
2018-06-24T12:25:52.012Z,99.90
2018-06-24T12:28:21.050Z,99.90
2018-06-24T12:30:50.207Z,99.90
2018-06-24T12:33:19.095Z,99.90
2018-06-24T12:35:48.072Z,99.90
2018-06-24T12:38:17.102Z,99.70
2018-06-24T12:40:46.162Z,99.90
2018-06-24T12:43:15.179Z,99.90
2018-06-24T12:45:44.226Z,99.90
2018-06-24T12:48:13.323Z,99.20
2018-06-24T12:50:42.270Z,99.20
2018-06-24T12:53:11.223Z,99.30
2018-06-24T12:55:40.200Z,98.60
2018-06-24T12:58:09.236Z,98.30
2018-06-24T13:00:38.867Z,99.00
2018-06-24T13:03:07.231Z,98.40
2018-06-24T13:05:36.232Z,98.30
2018-06-24T13:08:08.307Z,99.20
2018-06-24T13:10:37.293Z,98.50
2018-06-24T13:13:06.247Z,98.10
2018-06-24T13:15:35.214Z,98.40
2018-06-24T13:18:04.234Z,98.10
2018-06-24T13:20:33.230Z,98.40
2018-06-24T13:23:02.190Z,98.60
2018-06-24T13:25:31.200Z,99.00
2018-06-24T13:28:01.116Z,98.30
2018-06-24T13:30:30.170Z,98.80
2018-06-24T13:32:59.514Z,98.20
2018-06-24T13:35:28.714Z,98.70
2018-06-24T13:37:57.840Z,99.30
2018-06-24T13:40:26.865Z,96.60
2018-06-24T13:42:55.815Z,97.90
2018-06-24T13:45:24.815Z,96.80
2018-06-24T13:47:53.990Z,96.00
2018-06-24T13:50:22.959Z,97.00
2018-06-24T13:52:51.934Z,96.30
2018-06-24T13:55:20.894Z,96.00
2018-06-24T13:57:49.861Z,96.70
2018-06-24T14:00:18.883Z,97.30
2018-06-24T14:02:47.835Z,97.30
2018-06-24T14:05:16.834Z,97.10
2018-06-24T14:07:45.930Z,97.00
2018-06-24T14:10:15.001Z,97.70
2018-06-24T14:12:44.012Z,97.60
2018-06-24T14:15:13.355Z,97.50
2018-06-24T14:17:42.344Z,96.90
2018-06-24T14:20:11.335Z,96.50
2018-06-24T14:22:40.376Z,96.30
2018-06-24T14:25:09.376Z,97.20
2018-06-24T14:27:38.360Z,96.50
2018-06-24T14:30:07.382Z,95.60
2018-06-24T14:32:36.405Z,95.30
2018-06-24T14:35:05.377Z,95.40
2018-06-24T14:37:34.687Z,95.50
2018-06-24T14:40:03.699Z,94.90
2018-06-24T14:42:32.682Z,96.50
2018-06-24T14:45:01.713Z,95.90
2018-06-24T14:47:30.874Z,95.80
2018-06-24T14:49:59.868Z,96.30
2018-06-24T14:52:28.828Z,96.50
2018-06-24T14:54:58.322Z,96.90
2018-06-24T14:57:27.315Z,96.10
2018-06-24T14:59:56.731Z,95.70
2018-06-24T15:02:25.816Z,96.50
2018-06-24T15:04:54.949Z,96.60
2018-06-24T15:07:23.953Z,95.90
2018-06-24T15:09:53.023Z,95.60
2018-06-24T15:12:22.079Z,96.50
2018-06-24T15:14:51.141Z,96.40
2018-06-24T15:17:20.181Z,96.60
2018-06-24T15:19:49.179Z,96.70
2018-06-24T15:22:18.298Z,97.00
2018-06-24T15:27:24.568Z,96.90
2018-06-24T15:29:53.600Z,96.60
2018-06-24T15:32:22.556Z,96.40
2018-06-24T15:34:51.522Z,96.80
2018-06-24T15:37:20.511Z,96.10
2018-06-24T15:39:49.530Z,96.40
2018-06-24T15:42:18.546Z,97.00
2018-06-24T15:44:47.523Z,97.10
2018-06-24T15:47:16.559Z,96.80
2018-06-24T15:49:45.530Z,97.70
2018-06-24T15:52:14.486Z,96.30
2018-06-24T15:54:43.477Z,96.50
2018-06-24T15:57:12.494Z,96.30
2018-06-24T15:59:41.541Z,96.90
2018-06-24T16:02:10.621Z,97.00
2018-06-24T16:04:39.654Z,96.70
2018-06-24T16:07:08.589Z,96.90
2018-06-24T16:09:37.634Z,96.80
2018-06-24T16:12:06.764Z,97.20
2018-06-24T16:14:35.731Z,96.40
2018-06-24T16:17:05.537Z,96.60
2018-06-24T16:19:34.469Z,95.60
2018-06-24T16:22:03.444Z,96.00
2018-06-24T16:24:32.410Z,95.80
2018-06-24T16:27:01.731Z,95.70
2018-06-24T16:29:30.726Z,95.80
2018-06-24T16:31:59.759Z,96.00
2018-06-24T16:34:28.734Z,96.00
2018-06-24T16:36:58.044Z,96.10
2018-06-24T16:39:26.999Z,96.20
2018-06-24T16:41:56.015Z,96.40
2018-06-24T16:44:25.035Z,96.60
2018-06-24T16:46:54.744Z,96.70
2018-06-24T16:49:47.014Z,96.60
2018-06-24T16:52:18.173Z,97.00
2018-06-24T16:54:48.221Z,97.10
2018-06-24T16:57:22.132Z,97.40
2018-06-24T16:59:52.115Z,97.40
2018-06-24T17:02:26.280Z,98.00
2018-06-24T17:04:57.156Z,96.30
2018-06-24T17:07:26.472Z,96.20
2018-06-24T17:09:55.861Z,96.10
2018-06-24T17:12:25.278Z,96.40
2018-06-24T17:17:28.370Z,95.10
2018-06-24T17:19:57.350Z,94.80
2018-06-24T17:22:26.347Z,94.40
2018-06-24T17:24:55.428Z,94.50
2018-06-24T17:27:24.432Z,94.70
2018-06-24T17:29:53.458Z,94.40
2018-06-24T17:32:22.422Z,94.50
2018-06-24T17:34:51.448Z,94.60
2018-06-24T17:37:20.434Z,94.90
2018-06-24T17:39:49.439Z,95.30
2018-06-24T17:42:18.450Z,96.10
2018-06-24T17:44:47.418Z,96.70
2018-06-24T17:47:16.464Z,97.50
2018-06-24T17:49:45.487Z,98.50
2018-06-24T17:52:14.467Z,99.20
2018-06-24T17:54:43.470Z,99.20
2018-06-24T17:57:12.447Z,99.90
2018-06-24T17:59:41.486Z,99.40
2018-06-24T18:02:10.618Z,99.60
2018-06-24T18:04:40.358Z,99.90
2018-06-24T18:07:09.341Z,99.80
2018-06-24T18:09:39.388Z,99.70
2018-06-24T18:12:08.571Z,99.80
2018-06-24T18:14:39.000Z,99.50
2018-06-24T18:17:07.684Z,99.90
2018-06-24T18:19:36.646Z,99.60
2018-06-24T18:22:05.710Z,99.90
2018-06-24T18:24:35.138Z,99.90
2018-06-24T18:27:04.894Z,99.90
2018-06-24T18:29:33.941Z,99.40
2018-06-24T18:32:03.036Z,99.70
2018-06-24T18:34:32.142Z,99.90
2018-06-24T18:37:01.248Z,99.50
2018-06-24T18:39:30.236Z,99.50
2018-06-24T18:42:00.049Z,99.90
2018-06-24T18:44:29.023Z,99.90
2018-06-24T18:46:58.007Z,99.90
2018-06-24T18:49:27.012Z,99.90
2018-06-24T18:51:56.020Z,99.90
2018-06-24T18:54:25.153Z,99.90
2018-06-24T18:56:54.441Z,99.90
2018-06-24T18:59:23.546Z,99.90
2018-06-24T19:01:52.856Z,99.90
2018-06-24T19:04:22.038Z,99.90
2018-06-24T19:06:52.654Z,99.90
2018-06-24T19:09:21.605Z,99.90
2018-06-24T19:11:50.814Z,99.90
2018-06-24T19:14:20.011Z,99.90
2018-06-24T19:16:49.230Z,99.90
2018-06-24T19:19:18.198Z,99.90
2018-06-24T19:21:48.164Z,99.90
2018-06-24T19:24:17.195Z,99.90
2018-06-24T19:26:46.352Z,99.90
2018-06-24T19:29:16.751Z,99.90
2018-06-24T19:31:46.592Z,99.90
2018-06-24T19:34:15.910Z,99.90
2018-06-24T19:36:45.430Z,99.90
2018-06-24T19:39:14.547Z,99.90
2018-06-24T19:41:44.275Z,99.90
2018-06-24T19:44:14.983Z,99.90
2018-06-24T19:46:44.035Z,99.90
2018-06-24T19:49:13.018Z,99.90
2018-06-24T19:51:43.183Z,99.90
2018-06-24T19:54:12.519Z,99.90
2018-06-24T19:56:42.895Z,99.90
2018-06-24T19:59:11.939Z,99.90
2018-06-24T20:01:42.576Z,99.90
2018-06-24T20:04:11.551Z,99.90
2018-06-24T20:06:40.554Z,99.90
2018-06-24T20:09:10.585Z,99.90
2018-06-24T20:11:40.055Z,99.90
2018-06-24T20:14:09.258Z,99.90
2018-06-24T20:16:38.491Z,99.90
2018-06-24T20:19:07.615Z,99.90
2018-06-24T20:21:36.706Z,99.90
2018-06-24T20:24:08.023Z,99.90
2018-06-24T20:26:38.141Z,99.90
2018-06-24T20:29:07.157Z,99.90
2018-06-24T20:31:36.201Z,99.90
2018-06-24T20:34:06.074Z,99.90
2018-06-24T20:36:37.353Z,99.90
2018-06-24T20:39:08.908Z,99.90
2018-06-24T20:41:38.821Z,99.90
2018-06-24T20:44:08.284Z,99.90
2018-06-24T20:46:37.364Z,99.90
2018-06-24T20:49:06.571Z,99.90
2018-06-24T20:51:35.582Z,99.90
2018-06-24T20:54:04.798Z,99.90
2018-06-24T20:56:33.927Z,99.90
2018-06-24T20:59:03.058Z,99.90
2018-06-24T21:01:32.123Z,99.90
2018-06-24T21:04:01.251Z,99.90
2018-06-24T21:06:30.445Z,99.90
2018-06-24T21:08:59.506Z,99.90
2018-06-24T21:11:28.518Z,99.90
2018-06-24T21:13:57.632Z,99.90
2018-06-24T21:16:26.746Z,99.90
2018-06-24T21:18:55.776Z,99.90
2018-06-24T21:21:25.056Z,99.90
2018-06-24T21:23:54.081Z,99.90
2018-06-24T21:26:23.166Z,99.90
2018-06-24T21:28:52.187Z,99.90
2018-06-24T21:31:21.279Z,99.90
2018-06-24T21:33:50.302Z,99.90
2018-06-24T21:36:19.327Z,99.90
2018-06-24T21:38:48.378Z,99.90
2018-06-24T21:41:17.383Z,99.90
2018-06-24T21:43:46.379Z,99.90
2018-06-24T21:46:15.364Z,99.90
2018-06-24T21:48:44.369Z,99.90
2018-06-24T21:51:13.423Z,99.90
2018-06-24T21:53:42.415Z,99.90
2018-06-24T21:56:11.547Z,99.90
2018-06-24T21:58:40.579Z,99.90
2018-06-24T22:01:09.633Z,99.90
2018-06-24T22:03:38.938Z,99.90
2018-06-24T22:06:08.000Z,99.90
2018-06-24T22:08:37.078Z,99.90
2018-06-24T22:11:06.165Z,99.90
2018-06-24T22:13:35.135Z,99.90
2018-06-24T22:16:04.366Z,99.90
2018-06-24T22:18:33.551Z,99.90
2018-06-24T22:21:02.609Z,99.90
2018-06-24T22:23:31.851Z,99.90
2018-06-24T22:26:00.890Z,99.90
2018-06-24T22:28:30.068Z,99.90
2018-06-24T22:30:59.081Z,99.90
2018-06-24T22:33:28.111Z,99.90
2018-06-24T22:35:57.251Z,99.90
2018-06-24T22:38:26.282Z,99.90
2018-06-24T22:40:55.347Z,99.90
2018-06-24T22:43:24.503Z,99.90
2018-06-24T22:45:53.578Z,99.90
2018-06-24T22:48:22.911Z,99.90
2018-06-24T22:50:52.020Z,99.90
2018-06-24T22:53:21.491Z,99.90
2018-06-24T22:55:50.634Z,99.90
2018-06-24T22:58:19.637Z,99.90
2018-06-24T23:00:48.655Z,99.90
2018-06-24T23:03:17.719Z,99.90
2018-06-24T23:05:46.710Z,99.90
2018-06-24T23:10:44.330Z,99.90
2018-06-24T23:13:13.331Z,99.90
2018-06-24T23:15:42.391Z,99.90
2018-06-24T23:18:11.390Z,99.90
2018-06-24T23:20:40.479Z,99.90
2018-06-24T23:23:09.606Z,99.90
2018-06-24T23:25:38.770Z,99.90
2018-06-24T23:28:07.894Z,99.90
2018-06-24T23:30:36.910Z,99.90
2018-06-24T23:33:05.962Z,99.90
2018-06-24T23:35:34.983Z,99.90
2018-06-24T23:38:04.168Z,99.90
2018-06-24T23:40:33.166Z,99.90
2018-06-24T23:43:02.263Z,99.90
2018-06-24T23:45:31.354Z,99.90
2018-06-24T23:48:00.318Z,99.90
2018-06-24T23:50:29.297Z,99.90
2018-06-24T23:52:58.258Z,99.90
2018-06-24T23:55:27.226Z,99.90
2018-06-24T23:57:56.214Z,99.90
